createdAt,value
2023-03-16T00:01:07.409Z,3.08
2023-03-16T00:03:36.843Z,2.91
2023-03-16T00:06:05.603Z,2.76
2023-03-16T00:08:35.071Z,2.96
2023-03-16T00:11:04.036Z,2.96
2023-03-16T00:13:32.894Z,2.66
2023-03-16T00:16:05.881Z,2.78
2023-03-16T00:18:41.468Z,2.73
2023-03-16T00:21:09.697Z,2.81
2023-03-16T00:23:38.306Z,2.77
2023-03-16T00:26:08.824Z,2.84
2023-03-16T00:28:37.574Z,2.68
2023-03-16T00:31:07.906Z,2.77
2023-03-16T00:33:36.073Z,2.55
2023-03-16T00:36:11.679Z,2.88
2023-03-16T00:38:45.616Z,2.63
2023-03-16T00:41:15.736Z,2.76
2023-03-16T00:43:45.682Z,2.79
2023-03-16T00:46:17.119Z,2.50
2023-03-16T00:48:47.725Z,2.59
2023-03-16T00:51:18.116Z,2.42
2023-03-16T00:53:47.114Z,2.51
2023-03-16T00:56:16.631Z,2.33
2023-03-16T00:58:44.968Z,2.34
2023-03-16T01:01:19.276Z,2.28
2023-03-16T01:03:49.153Z,2.20
2023-03-16T01:06:18.086Z,2.24
2023-03-16T01:08:46.345Z,2.06
2023-03-16T01:11:17.637Z,2.19
2023-03-16T01:13:49.379Z,1.85
2023-03-16T01:16:23.607Z,2.12
2023-03-16T01:18:52.910Z,2.10
2023-03-16T01:21:22.055Z,2.07
2023-03-16T01:23:50.764Z,1.81
2023-03-16T01:26:19.426Z,2.13
2023-03-16T01:28:48.335Z,1.95
2023-03-16T01:31:17.277Z,2.16
2023-03-16T01:33:45.516Z,2.07
2023-03-16T01:36:16.662Z,1.97
2023-03-16T01:38:45.572Z,2.31
2023-03-16T01:41:14.771Z,2.13
2023-03-16T01:43:43.972Z,2.17
2023-03-16T01:46:27.835Z,2.22
2023-03-16T01:49:10.509Z,2.18
2023-03-16T01:51:52.240Z,1.86
2023-03-16T01:54:30.752Z,1.97
2023-03-16T01:57:07.876Z,2.05
2023-03-16T01:59:43.683Z,2.12
2023-03-16T02:02:14.802Z,2.11
2023-03-16T02:04:58.545Z,1.78
2023-03-16T02:07:29.415Z,1.86
2023-03-16T02:09:59.462Z,1.76
2023-03-16T02:12:27.752Z,1.83
2023-03-16T02:14:56.393Z,1.75
2023-03-16T02:17:27.958Z,1.83
2023-03-16T02:20:18.152Z,1.74
2023-03-16T02:22:49.772Z,2.01
2023-03-16T02:25:19.223Z,1.76
2023-03-16T02:28:13.840Z,2.01
2023-03-16T02:30:42.390Z,1.67
2023-03-16T02:33:12.293Z,1.53
2023-03-16T02:35:40.637Z,1.74
2023-03-16T02:38:10.204Z,1.73
2023-03-16T02:40:39.238Z,1.60
2023-03-16T02:43:16.109Z,1.61
2023-03-16T02:45:52.473Z,1.89
2023-03-16T02:48:56.984Z,1.73
2023-03-16T02:51:25.592Z,1.58
2023-03-16T02:53:54.983Z,1.79
2023-03-16T02:56:23.811Z,1.89
2023-03-16T02:58:52.382Z,1.70
2023-03-16T03:01:20.885Z,1.66
2023-03-16T03:03:49.781Z,1.83
2023-03-16T03:06:18.221Z,1.64
2023-03-16T03:08:46.585Z,1.67
2023-03-16T03:11:14.753Z,1.80
2023-03-16T03:13:44.847Z,1.54
2023-03-16T03:16:14.531Z,1.79
2023-03-16T03:18:43.264Z,1.61
2023-03-16T03:21:11.735Z,1.58
2023-03-16T03:23:41.222Z,1.79
2023-03-16T03:26:09.752Z,1.60
2023-03-16T03:28:38.820Z,1.36
2023-03-16T03:31:07.293Z,1.56
2023-03-16T03:33:35.886Z,1.51
2023-03-16T03:36:04.343Z,1.72
2023-03-16T03:38:34.225Z,1.57
2023-03-16T03:41:03.347Z,1.51
2023-03-16T03:43:31.714Z,1.35
2023-03-16T03:46:01.358Z,1.23
2023-03-16T03:48:31.884Z,1.54
2023-03-16T03:51:00.118Z,1.55
2023-03-16T03:53:29.303Z,1.35
2023-03-16T03:56:00.212Z,1.37
2023-03-16T03:58:28.359Z,1.58
2023-03-16T04:00:56.640Z,1.36
2023-03-16T04:03:25.252Z,1.14
2023-03-16T04:05:53.905Z,1.20
2023-03-16T04:08:22.092Z,1.31
2023-03-16T04:10:51.732Z,1.17
2023-03-16T04:13:22.113Z,1.42
2023-03-16T04:15:57.084Z,1.28
2023-03-16T04:18:25.904Z,1.31
2023-03-16T04:20:54.691Z,1.56
2023-03-16T04:23:23.042Z,1.43
2023-03-16T04:25:52.124Z,1.20
2023-03-16T04:28:21.263Z,1.32
2023-03-16T04:30:54.847Z,1.26
2023-03-16T04:33:23.928Z,1.62
2023-03-16T04:35:52.598Z,1.48
2023-03-16T04:38:21.272Z,1.24
2023-03-16T04:40:50.346Z,1.25
2023-03-16T04:43:19.224Z,1.30
2023-03-16T04:45:47.734Z,1.03
2023-03-16T04:48:16.323Z,1.12
2023-03-16T04:50:44.675Z,1.03
2023-03-16T04:53:13.759Z,1.06
2023-03-16T04:55:42.622Z,1.16
2023-03-16T04:58:10.745Z,0.92
2023-03-16T05:00:41.085Z,0.98
2023-03-16T05:03:14.509Z,1.27
2023-03-16T05:05:42.909Z,1.03
2023-03-16T05:08:12.497Z,1.10
2023-03-16T05:10:41.085Z,1.22
2023-03-16T05:13:09.401Z,0.99
2023-03-16T05:15:38.452Z,1.10
2023-03-16T05:18:07.913Z,1.36
2023-03-16T05:20:36.280Z,1.24
2023-03-16T05:23:04.907Z,1.44
2023-03-16T05:25:34.786Z,1.42
2023-03-16T05:28:03.339Z,1.47
2023-03-16T05:30:32.185Z,1.56
2023-03-16T05:33:01.179Z,1.58
2023-03-16T05:35:29.640Z,1.68
2023-03-16T05:37:59.198Z,2.71
2023-03-16T05:40:28.531Z,4.68
2023-03-16T05:43:00.690Z,6.02
2023-03-16T05:45:30.225Z,7.81
2023-03-16T05:47:58.982Z,8.62
2023-03-16T05:50:28.973Z,9.33
2023-03-16T05:52:57.922Z,9.26
2023-03-16T05:55:26.356Z,10.57
2023-03-16T05:57:54.905Z,11.43
2023-03-16T06:00:26.170Z,12.47
2023-03-16T06:02:55.783Z,12.77
2023-03-16T06:05:28.760Z,12.93
2023-03-16T06:07:57.880Z,11.77
2023-03-16T06:10:27.120Z,12.41
2023-03-16T06:12:55.545Z,11.71
2023-03-16T06:15:27.138Z,10.83
2023-03-16T06:17:57.176Z,8.59
2023-03-16T06:20:26.129Z,8.00
2023-03-16T06:22:55.751Z,7.33
2023-03-16T06:25:24.444Z,7.00
2023-03-16T06:27:53.624Z,6.56
2023-03-16T06:30:22.116Z,6.87
2023-03-16T06:32:53.504Z,6.47
2023-03-16T06:35:22.214Z,7.14
2023-03-16T06:37:50.760Z,7.21
2023-03-16T06:40:22.312Z,8.44
2023-03-16T06:42:51.530Z,8.18
2023-03-16T06:45:22.512Z,8.59
2023-03-16T06:47:51.631Z,7.43
2023-03-16T06:50:19.871Z,7.91
2023-03-16T06:52:48.278Z,7.01
2023-03-16T06:55:17.310Z,7.35
2023-03-16T06:57:46.177Z,7.68
2023-03-16T07:00:15.936Z,7.62
2023-03-16T07:02:49.298Z,7.47
2023-03-16T07:05:20.006Z,7.01
2023-03-16T07:07:49.123Z,6.59
2023-03-16T07:10:19.967Z,6.73
2023-03-16T07:12:50.890Z,6.50
2023-03-16T07:15:20.144Z,6.63
2023-03-16T07:17:50.473Z,6.66
2023-03-16T07:20:20.437Z,6.79
2023-03-16T07:22:49.744Z,7.19
2023-03-16T07:25:23.017Z,7.13
2023-03-16T07:27:51.852Z,7.07
2023-03-16T07:30:21.316Z,6.84
2023-03-16T07:32:50.204Z,7.11
2023-03-16T07:35:22.790Z,7.32
2023-03-16T07:37:51.136Z,7.49
2023-03-16T07:40:20.071Z,8.21
2023-03-16T07:42:48.609Z,8.77
2023-03-16T07:45:18.274Z,8.97
2023-03-16T07:47:47.433Z,9.20
2023-03-16T07:50:17.188Z,9.51
2023-03-16T07:52:47.431Z,9.97
2023-03-16T07:55:16.331Z,9.84
2023-03-16T07:57:48.248Z,9.28
2023-03-16T08:00:20.742Z,9.25
2023-03-16T08:02:52.308Z,9.60
2023-03-16T08:05:20.497Z,9.35
2023-03-16T08:07:49.307Z,9.54
2023-03-16T08:10:19.014Z,9.65
2023-03-16T08:12:48.102Z,9.32
2023-03-16T08:15:20.101Z,9.56
2023-03-16T08:17:49.122Z,9.29
2023-03-16T08:20:26.097Z,9.89
2023-03-16T08:22:57.147Z,10.07
2023-03-16T08:25:25.616Z,10.75
2023-03-16T08:27:54.286Z,10.62
2023-03-16T08:30:23.150Z,10.76
2023-03-16T08:32:52.590Z,11.18
2023-03-16T08:35:20.838Z,10.21
2023-03-16T08:37:49.813Z,10.35
2023-03-16T08:40:18.599Z,10.55
2023-03-16T08:42:52.090Z,10.50
2023-03-16T08:45:20.787Z,10.99
2023-03-16T08:47:52.097Z,10.92
2023-03-16T08:50:21.299Z,10.50
2023-03-16T08:52:51.131Z,11.12
2023-03-16T08:55:19.385Z,11.43
2023-03-16T08:57:49.204Z,11.83
2023-03-16T09:00:18.239Z,11.93
2023-03-16T09:02:47.257Z,11.36
2023-03-16T09:05:18.562Z,12.43
2023-03-16T09:07:48.994Z,12.81
2023-03-16T09:10:20.105Z,13.64
2023-03-16T09:12:48.340Z,13.17
2023-03-16T09:15:16.740Z,13.33
2023-03-16T09:17:47.357Z,13.18
2023-03-16T09:20:35.006Z,13.23
2023-03-16T09:23:06.135Z,13.36
2023-03-16T09:26:06.241Z,13.11
2023-03-16T09:28:52.898Z,12.97
2023-03-16T09:31:21.740Z,13.52
2023-03-16T09:33:54.173Z,13.75
2023-03-16T09:36:22.405Z,14.12
2023-03-16T09:38:50.735Z,13.97
2023-03-16T09:41:42.126Z,14.53
2023-03-16T09:44:38.589Z,15.77
2023-03-16T09:47:15.813Z,15.53
2023-03-16T09:49:49.692Z,16.48
2023-03-16T09:52:32.131Z,16.86
2023-03-16T09:55:07.910Z,16.99
2023-03-16T09:57:40.854Z,17.28
2023-03-16T10:00:22.225Z,16.60
2023-03-16T10:02:58.163Z,17.89
2023-03-16T10:05:27.606Z,17.38
2023-03-16T10:07:58.953Z,16.68
2023-03-16T10:10:55.574Z,17.15
2023-03-16T10:13:44.146Z,18.17
2023-03-16T10:16:17.922Z,18.50
2023-03-16T10:18:53.181Z,18.45
2023-03-16T10:21:21.597Z,18.53
2023-03-16T10:23:52.366Z,20.92
2023-03-16T10:26:28.961Z,20.00
2023-03-16T10:29:04.035Z,21.14
2023-03-16T10:31:35.732Z,20.46
2023-03-16T10:34:06.308Z,21.02
2023-03-16T10:36:42.319Z,21.50
2023-03-16T10:39:16.604Z,21.76
2023-03-16T10:41:47.214Z,22.18
2023-03-16T10:44:27.005Z,22.13
2023-03-16T10:47:06.791Z,21.23
2023-03-16T10:49:44.673Z,21.12
2023-03-16T10:52:24.237Z,21.00
2023-03-16T10:55:01.637Z,21.40
2023-03-16T10:57:31.254Z,22.15
2023-03-16T11:00:21.183Z,22.88
2023-03-16T11:02:51.494Z,22.05
2023-03-16T11:05:21.712Z,21.61
2023-03-16T11:08:13.404Z,21.22
2023-03-16T11:10:55.994Z,18.77
2023-03-16T11:13:39.300Z,19.46
2023-03-16T11:16:23.425Z,19.71
2023-03-16T11:18:55.880Z,20.95
2023-03-16T11:21:38.843Z,20.64
2023-03-16T11:24:17.292Z,20.51
2023-03-16T11:26:48.870Z,21.70
2023-03-16T11:29:29.500Z,22.72
2023-03-16T11:32:06.025Z,21.81
2023-03-16T11:34:40.291Z,21.64
2023-03-16T11:37:08.892Z,22.82
2023-03-16T11:40:02.344Z,22.20
2023-03-16T11:42:57.147Z,21.55
2023-03-16T11:45:33.063Z,22.65
2023-03-16T11:48:14.111Z,22.66
2023-03-16T11:50:50.261Z,22.35
2023-03-16T11:53:57.651Z,20.87
2023-03-16T11:56:36.244Z,20.74
2023-03-16T11:59:34.489Z,21.04
2023-03-16T12:02:25.937Z,20.04
2023-03-16T12:05:23.493Z,18.80
2023-03-16T12:07:59.272Z,16.98
2023-03-16T12:10:42.171Z,16.47
2023-03-16T12:13:16.306Z,15.60
2023-03-16T12:15:51.909Z,15.21
2023-03-16T12:18:36.440Z,15.66
2023-03-16T12:21:10.021Z,15.24
2023-03-16T12:23:57.319Z,14.92
2023-03-16T12:26:32.324Z,15.24
2023-03-16T12:29:29.719Z,15.05
2023-03-16T12:32:10.277Z,15.26
2023-03-16T12:34:56.805Z,15.35
2023-03-16T12:38:01.453Z,14.72
2023-03-16T12:40:44.318Z,14.63
2023-03-16T12:43:45.143Z,14.36
2023-03-16T12:46:25.071Z,14.63
2023-03-16T12:48:58.865Z,14.47
2023-03-16T12:51:41.721Z,14.05
2023-03-16T12:54:35.966Z,14.04
2023-03-16T12:57:09.961Z,13.36
2023-03-16T12:59:46.017Z,13.36
2023-03-16T13:02:20.469Z,13.17
2023-03-16T13:05:00.419Z,13.07
2023-03-16T13:07:31.415Z,13.27
2023-03-16T13:10:16.403Z,13.29
2023-03-16T13:12:46.497Z,12.88
2023-03-16T13:15:24.375Z,13.02
2023-03-16T13:18:10.688Z,13.10
2023-03-16T13:23:32.553Z,12.53
2023-03-16T13:26:20.163Z,12.66
2023-03-16T13:28:54.389Z,12.40
2023-03-16T13:31:41.939Z,12.62
2023-03-16T13:34:16.397Z,12.47
2023-03-16T13:36:48.138Z,12.51
2023-03-16T13:39:19.289Z,12.73
2023-03-16T13:41:59.854Z,12.46
2023-03-16T13:44:30.382Z,12.26
2023-03-16T13:47:05.411Z,12.39
2023-03-16T13:49:34.568Z,12.38
2023-03-16T13:52:06.179Z,12.50
2023-03-16T13:54:37.643Z,12.84
2023-03-16T13:57:09.934Z,12.01
2023-03-16T13:59:38.373Z,12.19
2023-03-16T14:02:20.998Z,12.39
2023-03-16T14:04:51.379Z,12.15
2023-03-16T14:07:21.584Z,12.49
2023-03-16T14:09:50.903Z,12.14
2023-03-16T14:12:20.572Z,12.02
2023-03-16T14:14:51.206Z,11.79
2023-03-16T14:17:24.376Z,11.82
2023-03-16T14:19:57.311Z,11.86
2023-03-16T14:22:33.463Z,12.32
2023-03-16T14:25:02.057Z,11.52
2023-03-16T14:27:39.662Z,11.57
2023-03-16T14:30:24.486Z,12.02
2023-03-16T14:33:04.625Z,11.87
2023-03-16T14:35:41.076Z,11.59
2023-03-16T14:38:40.424Z,11.88
2023-03-16T14:41:27.728Z,11.69
2023-03-16T14:43:59.387Z,11.22
2023-03-16T14:46:35.757Z,11.46
2023-03-16T14:49:10.996Z,11.63
2023-03-16T14:51:42.490Z,11.07
2023-03-16T14:54:16.605Z,11.34
2023-03-16T14:56:49.606Z,11.62
2023-03-16T14:59:18.648Z,11.40
2023-03-16T15:01:47.584Z,11.29
2023-03-16T15:04:19.831Z,11.16
2023-03-16T15:06:48.655Z,11.34
2023-03-16T15:09:38.305Z,11.26
2023-03-16T15:12:18.345Z,11.28
2023-03-16T15:15:06.663Z,10.86
2023-03-16T15:17:35.413Z,10.59
2023-03-16T15:20:05.764Z,10.43
2023-03-16T15:22:38.161Z,10.42
2023-03-16T15:25:22.347Z,10.42
2023-03-16T15:27:52.976Z,10.36
2023-03-16T15:30:27.557Z,10.41
2023-03-16T15:32:57.137Z,10.46
2023-03-16T15:35:25.741Z,10.58
2023-03-16T15:37:55.530Z,10.53
2023-03-16T15:40:29.310Z,10.81
2023-03-16T15:42:59.500Z,10.57
2023-03-16T15:45:28.893Z,10.33
2023-03-16T15:47:57.186Z,9.94
2023-03-16T15:50:28.788Z,9.79
2023-03-16T15:53:04.457Z,9.65
2023-03-16T15:55:38.712Z,9.66
2023-03-16T15:58:08.513Z,9.84
2023-03-16T16:00:38.306Z,9.44
2023-03-16T16:03:09.526Z,9.48
2023-03-16T16:05:37.609Z,9.51
2023-03-16T16:08:06.262Z,9.37
2023-03-16T16:10:35.171Z,9.21
2023-03-16T16:13:03.330Z,9.19
2023-03-16T16:15:35.890Z,8.84
2023-03-16T16:18:39.968Z,8.91
2023-03-16T16:21:17.504Z,8.58
2023-03-16T16:23:48.295Z,8.66
2023-03-16T16:26:27.837Z,8.48
2023-03-16T16:29:01.079Z,8.24
2023-03-16T16:31:30.883Z,8.22
2023-03-16T16:33:59.858Z,8.15
2023-03-16T16:36:32.608Z,8.21
2023-03-16T16:39:01.270Z,7.92
2023-03-16T16:41:31.346Z,7.83
2023-03-16T16:44:05.515Z,8.00
2023-03-16T16:46:40.723Z,7.97
2023-03-16T16:49:19.853Z,7.40
2023-03-16T16:51:50.794Z,7.76
2023-03-16T16:54:23.913Z,7.61
2023-03-16T16:56:56.804Z,7.69
2023-03-16T16:59:33.490Z,7.41
2023-03-16T17:02:03.536Z,7.55
2023-03-16T17:04:32.167Z,7.27
2023-03-16T17:07:02.344Z,7.26
2023-03-16T17:09:31.281Z,7.37
2023-03-16T17:12:01.381Z,7.55
2023-03-16T17:14:31.674Z,7.38
2023-03-16T17:17:05.402Z,7.38
2023-03-16T17:19:33.793Z,7.30
2023-03-16T17:22:02.610Z,7.45
2023-03-16T17:24:31.618Z,7.42
2023-03-16T17:27:00.865Z,7.12
2023-03-16T17:29:34.346Z,6.93
2023-03-16T17:32:04.864Z,6.72
2023-03-16T17:34:34.691Z,6.97
2023-03-16T17:37:03.058Z,6.50
2023-03-16T17:39:35.619Z,6.61
2023-03-16T17:42:12.554Z,5.79
2023-03-16T17:44:41.888Z,5.77
2023-03-16T17:47:15.846Z,5.27
2023-03-16T17:49:49.050Z,4.89
2023-03-16T17:52:29.504Z,4.33
2023-03-16T17:54:58.512Z,4.51
2023-03-16T17:57:33.336Z,4.42
2023-03-16T18:00:04.673Z,3.95
2023-03-16T18:02:43.994Z,4.86
2023-03-16T18:05:30.575Z,4.05
2023-03-16T18:08:22.127Z,4.12
2023-03-16T18:10:57.225Z,4.15
2023-03-16T18:13:36.656Z,2.80
2023-03-16T18:16:08.721Z,2.50
2023-03-16T18:18:41.891Z,1.97
2023-03-16T18:21:22.126Z,1.86
2023-03-16T18:23:51.738Z,1.68
2023-03-16T18:26:22.169Z,1.89
2023-03-16T18:28:50.939Z,2.11
2023-03-16T18:31:21.795Z,1.94
2023-03-16T18:33:55.237Z,1.51
2023-03-16T18:36:43.307Z,0.99
2023-03-16T18:39:18.915Z,0.85
2023-03-16T18:41:47.427Z,0.60
2023-03-16T18:44:21.577Z,1.00
2023-03-16T18:46:51.446Z,0.71
2023-03-16T18:49:35.967Z,0.71
2023-03-16T18:52:04.595Z,0.26
2023-03-16T18:54:35.735Z,0.09
2023-03-16T18:57:06.627Z,-0.01
2023-03-16T18:59:37.051Z,-0.05
2023-03-16T19:02:06.927Z,0.05
2023-03-16T19:04:35.908Z,0.02
2023-03-16T19:07:05.843Z,0.23
2023-03-16T19:09:35.494Z,0.14
2023-03-16T19:12:04.502Z,0.26
2023-03-16T19:14:34.440Z,-0.05
2023-03-16T19:17:02.672Z,-0.21
2023-03-16T19:19:31.149Z,-0.21
2023-03-16T19:22:07.747Z,-0.29
2023-03-16T19:24:50.810Z,0.11
2023-03-16T19:27:25.813Z,0.66
2023-03-16T19:29:55.100Z,0.59
2023-03-16T19:32:23.456Z,1.50
2023-03-16T19:34:51.906Z,2.51
2023-03-16T19:37:21.068Z,2.58
2023-03-16T19:39:49.300Z,2.98
2023-03-16T19:42:29.056Z,3.06
2023-03-16T19:44:57.691Z,2.58
2023-03-16T19:47:31.395Z,2.69
2023-03-16T19:50:00.373Z,2.96
2023-03-16T19:52:31.206Z,2.63
2023-03-16T19:54:59.899Z,1.68
2023-03-16T19:57:29.344Z,1.85
2023-03-16T19:59:58.799Z,1.94
2023-03-16T20:02:28.760Z,1.61
2023-03-16T20:04:57.612Z,1.33
2023-03-16T20:07:26.335Z,0.84
2023-03-16T20:09:54.568Z,0.79
2023-03-16T20:12:30.744Z,1.16
2023-03-16T20:15:00.106Z,0.88
2023-03-16T20:17:30.190Z,0.71
2023-03-16T20:19:58.443Z,0.96
2023-03-16T20:22:28.841Z,0.66
2023-03-16T20:24:58.311Z,0.83
2023-03-16T20:27:28.146Z,0.74
2023-03-16T20:29:56.474Z,0.82
2023-03-16T20:32:33.576Z,0.85
2023-03-16T20:35:01.833Z,0.33
2023-03-16T20:37:31.616Z,0.45
2023-03-16T20:40:00.060Z,0.18
2023-03-16T20:42:33.360Z,0.23
2023-03-16T20:45:02.197Z,0.46
2023-03-16T20:47:30.963Z,0.03
2023-03-16T20:49:59.304Z,0.48
2023-03-16T20:52:30.815Z,0.15
2023-03-16T20:54:59.415Z,0.29
2023-03-16T20:57:29.890Z,0.28
2023-03-16T20:59:58.528Z,0.23
2023-03-16T21:02:29.722Z,0.53
2023-03-16T21:05:02.028Z,0.48
2023-03-16T21:07:30.669Z,0.63
2023-03-16T21:09:59.286Z,0.40
2023-03-16T21:12:30.905Z,0.55
2023-03-16T21:15:00.286Z,0.23
2023-03-16T21:17:36.500Z,0.18
2023-03-16T21:20:18.962Z,0.62
2023-03-16T21:22:47.650Z,-0.15
2023-03-16T21:25:37.729Z,0.22
2023-03-16T21:28:05.990Z,-0.31
2023-03-16T21:30:38.617Z,-0.08
2023-03-16T21:33:19.215Z,-0.07
2023-03-16T21:35:47.962Z,-0.49
2023-03-16T21:38:19.663Z,-0.29
2023-03-16T21:40:49.000Z,-0.16
2023-03-16T21:43:17.486Z,-0.43
2023-03-16T21:45:46.634Z,-0.40
2023-03-16T21:48:25.575Z,-0.16
2023-03-16T21:50:54.122Z,-0.05
2023-03-16T21:53:28.982Z,-0.57
2023-03-16T21:55:57.946Z,-0.34
2023-03-16T21:58:27.634Z,-0.22
2023-03-16T22:00:58.616Z,-0.14
2023-03-16T22:03:44.231Z,-0.30
2023-03-16T22:06:18.127Z,-0.58
2023-03-16T22:08:46.801Z,-0.27
2023-03-16T22:11:20.874Z,-0.24
2023-03-16T22:13:50.450Z,-0.28
2023-03-16T22:16:21.131Z,-0.10
2023-03-16T22:18:52.244Z,-0.05
2023-03-16T22:21:34.485Z,0.37
2023-03-16T22:24:05.707Z,0.27
2023-03-16T22:26:34.176Z,0.37
2023-03-16T22:29:14.543Z,-0.54
2023-03-16T22:31:42.816Z,-0.74
2023-03-16T22:34:31.773Z,-0.86
2023-03-16T22:37:01.506Z,-0.62
2023-03-16T22:39:38.329Z,-0.98
2023-03-16T22:42:25.046Z,-0.97
2023-03-16T22:44:57.654Z,-1.11
2023-03-16T22:47:28.372Z,-0.95
2023-03-16T22:49:57.078Z,-1.27
2023-03-16T22:52:34.174Z,-1.67
2023-03-16T22:55:04.685Z,-1.88
2023-03-16T22:57:33.312Z,-1.96
2023-03-16T23:00:11.497Z,-1.97
2023-03-16T23:02:41.132Z,-1.57
2023-03-16T23:05:21.757Z,-1.61
2023-03-16T23:07:50.946Z,-0.82
2023-03-16T23:10:23.269Z,-0.79
2023-03-16T23:12:52.874Z,-1.46
2023-03-16T23:15:27.068Z,-1.61
2023-03-16T23:17:55.765Z,-1.43
2023-03-16T23:20:29.597Z,-1.54
2023-03-16T23:22:59.146Z,-1.58
2023-03-16T23:25:27.250Z,-1.23
2023-03-16T23:27:55.700Z,-1.63
2023-03-16T23:30:26.005Z,-1.69
2023-03-16T23:32:55.559Z,-1.62
2023-03-16T23:35:27.676Z,-1.14
2023-03-16T23:37:56.427Z,-1.54
2023-03-16T23:40:27.527Z,-1.88
2023-03-16T23:42:57.578Z,-1.61
2023-03-16T23:45:35.306Z,-1.74
2023-03-16T23:48:06.846Z,-1.62
2023-03-16T23:50:36.980Z,-1.35
2023-03-16T23:53:11.467Z,-1.44
2023-03-16T23:55:40.803Z,-1.58
2023-03-16T23:58:09.746Z,-1.60
